sensor_id;sensor_type;location;lat;lon;timestamp;P1;durP1;ratioP1;P2;durP2;ratioP2
74833;SDS011;63361;52.384;20.930;2024-03-02T00:01:58;43.07;;;20.90;;
74833;SDS011;63361;52.384;20.930;2024-03-02T00:04:23;43.20;;;20.58;;
74833;SDS011;63361;52.384;20.930;2024-03-02T00:06:51;48.50;;;20.07;;
74833;SDS011;63361;52.384;20.930;2024-03-02T00:09:20;50.33;;;21.23;;
74833;SDS011;63361;52.384;20.930;2024-03-02T00:11:45;49.83;;;22.07;;
74833;SDS011;63361;52.384;20.930;2024-03-02T00:14:11;44.43;;;20.17;;
74833;SDS011;63361;52.384;20.930;2024-03-02T00:16:37;43.80;;;20.08;;
74833;SDS011;63361;52.384;20.930;2024-03-02T00:19:02;47.33;;;20.83;;
74833;SDS011;63361;52.384;20.930;2024-03-02T00:21:30;44.88;;;20.70;;
74833;SDS011;63361;52.384;20.930;2024-03-02T00:23:56;41.47;;;18.93;;
74833;SDS011;63361;52.384;20.930;2024-03-02T00:26:22;42.97;;;20.17;;
74833;SDS011;63361;52.384;20.930;2024-03-02T00:28:47;41.90;;;18.83;;
74833;SDS011;63361;52.384;20.930;2024-03-02T00:31:15;45.50;;;20.40;;
74833;SDS011;63361;52.384;20.930;2024-03-02T00:33:45;44.97;;;20.95;;
74833;SDS011;63361;52.384;20.930;2024-03-02T00:36:12;39.08;;;18.65;;
74833;SDS011;63361;52.384;20.930;2024-03-02T00:41:11;43.53;;;19.57;;
74833;SDS011;63361;52.384;20.930;2024-03-02T00:43:43;41.03;;;18.65;;
74833;SDS011;63361;52.384;20.930;2024-03-02T00:46:11;41.35;;;19.73;;
74833;SDS011;63361;52.384;20.930;2024-03-02T00:48:51;39.40;;;17.27;;
74833;SDS011;63361;52.384;20.930;2024-03-02T00:51:19;44.35;;;19.23;;
74833;SDS011;63361;52.384;20.930;2024-03-02T00:53:46;44.20;;;18.80;;
74833;SDS011;63361;52.384;20.930;2024-03-02T00:56:11;48.05;;;18.98;;
74833;SDS011;63361;52.384;20.930;2024-03-02T00:58:37;40.20;;;20.43;;
74833;SDS011;63361;52.384;20.930;2024-03-02T01:01:03;41.17;;;18.83;;
74833;SDS011;63361;52.384;20.930;2024-03-02T01:03:28;40.00;;;19.33;;
74833;SDS011;63361;52.384;20.930;2024-03-02T01:05:53;44.37;;;18.13;;
74833;SDS011;63361;52.384;20.930;2024-03-02T01:08:19;41.27;;;18.33;;
74833;SDS011;63361;52.384;20.930;2024-03-02T01:10:44;49.78;;;21.02;;
74833;SDS011;63361;52.384;20.930;2024-03-02T01:13:10;40.27;;;19.63;;
74833;SDS011;63361;52.384;20.930;2024-03-02T01:15:35;44.93;;;19.97;;
74833;SDS011;63361;52.384;20.930;2024-03-02T01:18:01;42.67;;;19.73;;
74833;SDS011;63361;52.384;20.930;2024-03-02T01:20:26;47.47;;;19.93;;
74833;SDS011;63361;52.384;20.930;2024-03-02T01:22:52;49.40;;;20.40;;
74833;SDS011;63361;52.384;20.930;2024-03-02T01:25:18;44.72;;;20.55;;
74833;SDS011;63361;52.384;20.930;2024-03-02T01:27:43;43.37;;;19.43;;
74833;SDS011;63361;52.384;20.930;2024-03-02T01:30:09;37.43;;;16.53;;
74833;SDS011;63361;52.384;20.930;2024-03-02T01:32:37;44.38;;;20.20;;
74833;SDS011;63361;52.384;20.930;2024-03-02T01:35:03;44.80;;;21.02;;
74833;SDS011;63361;52.384;20.930;2024-03-02T01:37:29;42.87;;;18.43;;
74833;SDS011;63361;52.384;20.930;2024-03-02T01:39:54;46.47;;;20.43;;
74833;SDS011;63361;52.384;20.930;2024-03-02T01:42:19;51.47;;;20.07;;
74833;SDS011;63361;52.384;20.930;2024-03-02T01:44:45;43.23;;;19.77;;
74833;SDS011;63361;52.384;20.930;2024-03-02T01:47:10;46.73;;;21.13;;
74833;SDS011;63361;52.384;20.930;2024-03-02T01:49:36;43.47;;;20.20;;
74833;SDS011;63361;52.384;20.930;2024-03-02T01:52:03;48.10;;;20.52;;
74833;SDS011;63361;52.384;20.930;2024-03-02T01:54:29;45.83;;;18.70;;
74833;SDS011;63361;52.384;20.930;2024-03-02T01:56:54;46.57;;;20.87;;
74833;SDS011;63361;52.384;20.930;2024-03-02T01:59:20;49.90;;;20.27;;
74833;SDS011;63361;52.384;20.930;2024-03-02T02:01:45;40.93;;;19.00;;
74833;SDS011;63361;52.384;20.930;2024-03-02T02:04:11;47.92;;;20.35;;
74833;SDS011;63361;52.384;20.930;2024-03-02T02:06:36;42.43;;;18.67;;
74833;SDS011;63361;52.384;20.930;2024-03-02T02:09:02;46.67;;;20.60;;
74833;SDS011;63361;52.384;20.930;2024-03-02T02:11:27;42.73;;;19.47;;
74833;SDS011;63361;52.384;20.930;2024-03-02T02:13:53;48.15;;;20.25;;
74833;SDS011;63361;52.384;20.930;2024-03-02T02:16:20;46.88;;;20.10;;
74833;SDS011;63361;52.384;20.930;2024-03-02T02:18:46;41.63;;;19.20;;
74833;SDS011;63361;52.384;20.930;2024-03-02T02:21:11;41.37;;;18.27;;
74833;SDS011;63361;52.384;20.930;2024-03-02T02:23:36;43.83;;;19.57;;
74833;SDS011;63361;52.384;20.930;2024-03-02T02:26:02;48.87;;;20.10;;
74833;SDS011;63361;52.384;20.930;2024-03-02T02:28:28;44.58;;;20.98;;
74833;SDS011;63361;52.384;20.930;2024-03-02T02:30:54;42.58;;;20.42;;
74833;SDS011;63361;52.384;20.930;2024-03-02T02:33:21;45.60;;;20.67;;
74833;SDS011;63361;52.384;20.930;2024-03-02T02:35:46;49.20;;;20.00;;
74833;SDS011;63361;52.384;20.930;2024-03-02T02:38:12;46.33;;;19.43;;
74833;SDS011;63361;52.384;20.930;2024-03-02T02:40:37;44.63;;;20.63;;
74833;SDS011;63361;52.384;20.930;2024-03-02T02:43:03;42.03;;;19.77;;
74833;SDS011;63361;52.384;20.930;2024-03-02T02:45:28;43.55;;;19.55;;
74833;SDS011;63361;52.384;20.930;2024-03-02T02:47:54;42.13;;;19.07;;
74833;SDS011;63361;52.384;20.930;2024-03-02T02:50:19;48.07;;;21.00;;
74833;SDS011;63361;52.384;20.930;2024-03-02T02:52:45;45.03;;;20.52;;
74833;SDS011;63361;52.384;20.930;2024-03-02T02:55:11;43.87;;;19.37;;
74833;SDS011;63361;52.384;20.930;2024-03-02T02:57:38;42.25;;;20.20;;
74833;SDS011;63361;52.384;20.930;2024-03-02T03:00:05;38.30;;;18.03;;
74833;SDS011;63361;52.384;20.930;2024-03-02T03:02:38;41.80;;;19.20;;
74833;SDS011;63361;52.384;20.930;2024-03-02T03:05:05;42.35;;;19.35;;
74833;SDS011;63361;52.384;20.930;2024-03-02T03:07:31;38.67;;;18.15;;
74833;SDS011;63361;52.384;20.930;2024-03-02T03:09:57;43.78;;;19.50;;
74833;SDS011;63361;52.384;20.930;2024-03-02T03:12:23;41.00;;;18.40;;
74833;SDS011;63361;52.384;20.930;2024-03-02T03:14:48;45.07;;;19.53;;
74833;SDS011;63361;52.384;20.930;2024-03-02T03:17:13;43.17;;;18.47;;
74833;SDS011;63361;52.384;20.930;2024-03-02T03:19:39;41.50;;;17.57;;
74833;SDS011;63361;52.384;20.930;2024-03-02T03:22:04;44.13;;;18.70;;
74833;SDS011;63361;52.384;20.930;2024-03-02T03:24:29;38.37;;;18.23;;
74833;SDS011;63361;52.384;20.930;2024-03-02T03:26:55;45.03;;;19.05;;
74833;SDS011;63361;52.384;20.930;2024-03-02T03:29:20;38.67;;;17.70;;
74833;SDS011;63361;52.384;20.930;2024-03-02T03:31:45;41.33;;;18.33;;
74833;SDS011;63361;52.384;20.930;2024-03-02T03:34:11;38.03;;;17.30;;
74833;SDS011;63361;52.384;20.930;2024-03-02T03:36:40;40.80;;;18.75;;
74833;SDS011;63361;52.384;20.930;2024-03-02T03:39:06;43.37;;;20.00;;
74833;SDS011;63361;52.384;20.930;2024-03-02T03:41:31;37.80;;;17.70;;
74833;SDS011;63361;52.384;20.930;2024-03-02T03:43:57;44.93;;;18.67;;
74833;SDS011;63361;52.384;20.930;2024-03-02T03:46:22;42.25;;;18.98;;
74833;SDS011;63361;52.384;20.930;2024-03-02T03:48:47;44.63;;;19.00;;
74833;SDS011;63361;52.384;20.930;2024-03-02T03:51:13;46.30;;;19.10;;
74833;SDS011;63361;52.384;20.930;2024-03-02T03:53:39;44.22;;;18.67;;
74833;SDS011;63361;52.384;20.930;2024-03-02T03:56:04;44.83;;;18.93;;
74833;SDS011;63361;52.384;20.930;2024-03-02T03:58:30;40.70;;;17.97;;
74833;SDS011;63361;52.384;20.930;2024-03-02T04:00:55;43.43;;;18.83;;
74833;SDS011;63361;52.384;20.930;2024-03-02T04:03:21;39.58;;;17.73;;
74833;SDS011;63361;52.384;20.930;2024-03-02T04:05:46;48.30;;;19.37;;
74833;SDS011;63361;52.384;20.930;2024-03-02T04:08:11;45.60;;;18.13;;
74833;SDS011;63361;52.384;20.930;2024-03-02T04:10:37;44.90;;;19.57;;
74833;SDS011;63361;52.384;20.930;2024-03-02T04:13:02;44.57;;;19.00;;
74833;SDS011;63361;52.384;20.930;2024-03-02T04:15:27;48.67;;;18.13;;
74833;SDS011;63361;52.384;20.930;2024-03-02T04:17:53;43.97;;;19.90;;
74833;SDS011;63361;52.384;20.930;2024-03-02T04:20:18;48.13;;;19.20;;
74833;SDS011;63361;52.384;20.930;2024-03-02T04:22:43;49.00;;;18.70;;
74833;SDS011;63361;52.384;20.930;2024-03-02T04:25:09;50.30;;;20.40;;
74833;SDS011;63361;52.384;20.930;2024-03-02T04:27:34;53.10;;;19.67;;
74833;SDS011;63361;52.384;20.930;2024-03-02T04:30:00;47.60;;;20.23;;
74833;SDS011;63361;52.384;20.930;2024-03-02T04:32:26;47.93;;;20.00;;
74833;SDS011;63361;52.384;20.930;2024-03-02T04:34:52;52.53;;;20.02;;
74833;SDS011;63361;52.384;20.930;2024-03-02T04:37:17;46.97;;;19.60;;
74833;SDS011;63361;52.384;20.930;2024-03-02T04:39:42;50.70;;;19.57;;
74833;SDS011;63361;52.384;20.930;2024-03-02T04:42:08;41.90;;;18.00;;
74833;SDS011;63361;52.384;20.930;2024-03-02T04:44:33;46.53;;;19.75;;
74833;SDS011;63361;52.384;20.930;2024-03-02T04:46:59;41.03;;;18.20;;
74833;SDS011;63361;52.384;20.930;2024-03-02T04:49:24;46.90;;;19.73;;
74833;SDS011;63361;52.384;20.930;2024-03-02T04:51:49;48.00;;;19.37;;
74833;SDS011;63361;52.384;20.930;2024-03-02T04:54:15;46.43;;;19.13;;
74833;SDS011;63361;52.384;20.930;2024-03-02T04:56:40;44.60;;;20.00;;
74833;SDS011;63361;52.384;20.930;2024-03-02T04:59:09;46.33;;;19.10;;
74833;SDS011;63361;52.384;20.930;2024-03-02T05:01:35;48.58;;;20.55;;
74833;SDS011;63361;52.384;20.930;2024-03-02T05:04:01;55.15;;;19.45;;
74833;SDS011;63361;52.384;20.930;2024-03-02T05:06:27;46.60;;;19.67;;
74833;SDS011;63361;52.384;20.930;2024-03-02T05:08:52;51.97;;;19.13;;
74833;SDS011;63361;52.384;20.930;2024-03-02T05:11:17;47.57;;;20.37;;
74833;SDS011;63361;52.384;20.930;2024-03-02T05:14:01;45.28;;;18.38;;
74833;SDS011;63361;52.384;20.930;2024-03-02T05:16:27;46.07;;;18.93;;
74833;SDS011;63361;52.384;20.930;2024-03-02T05:18:52;45.77;;;18.97;;
74833;SDS011;63361;52.384;20.930;2024-03-02T05:21:17;48.35;;;20.13;;
74833;SDS011;63361;52.384;20.930;2024-03-02T05:23:43;48.27;;;19.37;;
74833;SDS011;63361;52.384;20.930;2024-03-02T05:26:09;49.78;;;19.90;;
74833;SDS011;63361;52.384;20.930;2024-03-02T05:28:37;52.47;;;20.13;;
74833;SDS011;63361;52.384;20.930;2024-03-02T05:31:03;50.45;;;20.73;;
74833;SDS011;63361;52.384;20.930;2024-03-02T05:33:28;48.13;;;19.57;;
74833;SDS011;63361;52.384;20.930;2024-03-02T05:35:56;53.65;;;20.30;;
74833;SDS011;63361;52.384;20.930;2024-03-02T05:38:21;47.60;;;19.53;;
74833;SDS011;63361;52.384;20.930;2024-03-02T05:40:47;46.23;;;19.93;;
74833;SDS011;63361;52.384;20.930;2024-03-02T05:43:12;52.58;;;20.35;;
74833;SDS011;63361;52.384;20.930;2024-03-02T05:45:38;47.77;;;19.63;;
74833;SDS011;63361;52.384;20.930;2024-03-02T05:48:04;51.88;;;19.58;;
74833;SDS011;63361;52.384;20.930;2024-03-02T05:50:32;54.20;;;20.90;;
74833;SDS011;63361;52.384;20.930;2024-03-02T05:52:57;51.77;;;21.83;;
74833;SDS011;63361;52.384;20.930;2024-03-02T05:55:23;55.63;;;21.27;;
74833;SDS011;63361;52.384;20.930;2024-03-02T05:57:49;50.07;;;21.37;;
74833;SDS011;63361;52.384;20.930;2024-03-02T06:00:34;46.47;;;20.27;;
74833;SDS011;63361;52.384;20.930;2024-03-02T06:03:00;53.40;;;19.80;;
74833;SDS011;63361;52.384;20.930;2024-03-02T06:05:25;48.67;;;19.57;;
74833;SDS011;63361;52.384;20.930;2024-03-02T06:07:50;55.70;;;19.47;;
74833;SDS011;63361;52.384;20.930;2024-03-02T06:10:16;50.43;;;20.33;;
74833;SDS011;63361;52.384;20.930;2024-03-02T06:12:42;47.83;;;20.65;;
74833;SDS011;63361;52.384;20.930;2024-03-02T06:15:08;49.30;;;20.60;;
74833;SDS011;63361;52.384;20.930;2024-03-02T06:17:34;48.07;;;20.80;;
74833;SDS011;63361;52.384;20.930;2024-03-02T06:20:01;50.88;;;21.17;;
74833;SDS011;63361;52.384;20.930;2024-03-02T06:22:27;46.97;;;20.38;;
74833;SDS011;63361;52.384;20.930;2024-03-02T06:24:52;46.80;;;18.90;;
74833;SDS011;63361;52.384;20.930;2024-03-02T06:27:17;50.90;;;20.93;;
74833;SDS011;63361;52.384;20.930;2024-03-02T06:29:43;43.37;;;19.13;;
74833;SDS011;63361;52.384;20.930;2024-03-02T06:32:08;49.08;;;20.02;;
74833;SDS011;63361;52.384;20.930;2024-03-02T06:34:34;41.73;;;18.77;;
74833;SDS011;63361;52.384;20.930;2024-03-02T06:36:59;44.30;;;18.97;;
74833;SDS011;63361;52.384;20.930;2024-03-02T06:39:24;47.27;;;19.63;;
74833;SDS011;63361;52.384;20.930;2024-03-02T06:41:50;44.40;;;18.63;;
74833;SDS011;63361;52.384;20.930;2024-03-02T06:44:16;47.93;;;19.00;;
74833;SDS011;63361;52.384;20.930;2024-03-02T06:46:41;45.97;;;18.97;;
74833;SDS011;63361;52.384;20.930;2024-03-02T06:49:06;38.77;;;17.97;;
74833;SDS011;63361;52.384;20.930;2024-03-02T06:51:33;40.65;;;17.58;;
74833;SDS011;63361;52.384;20.930;2024-03-02T06:53:59;44.53;;;18.03;;
74833;SDS011;63361;52.384;20.930;2024-03-02T06:56:24;42.50;;;18.63;;
74833;SDS011;63361;52.384;20.930;2024-03-02T06:58:49;37.03;;;17.27;;
74833;SDS011;63361;52.384;20.930;2024-03-02T07:01:15;38.47;;;16.77;;
74833;SDS011;63361;52.384;20.930;2024-03-02T07:03:40;45.93;;;18.07;;
74833;SDS011;63361;52.384;20.930;2024-03-02T07:06:06;33.73;;;16.57;;
74833;SDS011;63361;52.384;20.930;2024-03-02T07:08:31;36.27;;;16.60;;
74833;SDS011;63361;52.384;20.930;2024-03-02T07:10:56;37.00;;;16.52;;
74833;SDS011;63361;52.384;20.930;2024-03-02T07:13:22;40.80;;;16.07;;
74833;SDS011;63361;52.384;20.930;2024-03-02T07:15:48;32.03;;;15.43;;
74833;SDS011;63361;52.384;20.930;2024-03-02T07:18:28;38.20;;;16.00;;
74833;SDS011;63361;52.384;20.930;2024-03-02T07:20:57;31.50;;;14.13;;
74833;SDS011;63361;52.384;20.930;2024-03-02T07:23:26;36.13;;;15.43;;
74833;SDS011;63361;52.384;20.930;2024-03-02T07:25:56;34.50;;;15.43;;
74833;SDS011;63361;52.384;20.930;2024-03-02T07:28:22;31.87;;;14.07;;
74833;SDS011;63361;52.384;20.930;2024-03-02T07:30:57;32.60;;;14.60;;
74833;SDS011;63361;52.384;20.930;2024-03-02T07:33:26;34.93;;;15.03;;
74833;SDS011;63361;52.384;20.930;2024-03-02T07:35:51;32.20;;;14.70;;
74833;SDS011;63361;52.384;20.930;2024-03-02T07:38:17;34.90;;;14.83;;
74833;SDS011;63361;52.384;20.930;2024-03-02T07:40:42;31.65;;;15.23;;
74833;SDS011;63361;52.384;20.930;2024-03-02T07:43:08;32.50;;;14.93;;
74833;SDS011;63361;52.384;20.930;2024-03-02T07:45:33;31.97;;;13.87;;
74833;SDS011;63361;52.384;20.930;2024-03-02T07:48:01;29.40;;;13.70;;
74833;SDS011;63361;52.384;20.930;2024-03-02T07:50:26;33.67;;;14.63;;
74833;SDS011;63361;52.384;20.930;2024-03-02T07:52:52;31.88;;;14.07;;
74833;SDS011;63361;52.384;20.930;2024-03-02T07:55:17;32.40;;;13.43;;
74833;SDS011;63361;52.384;20.930;2024-03-02T07:57:43;28.57;;;11.90;;
74833;SDS011;63361;52.384;20.930;2024-03-02T08:00:08;29.48;;;13.45;;
74833;SDS011;63361;52.384;20.930;2024-03-02T08:02:34;32.87;;;13.50;;
74833;SDS011;63361;52.384;20.930;2024-03-02T08:05:00;28.38;;;13.40;;
74833;SDS011;63361;52.384;20.930;2024-03-02T08:07:26;31.25;;;12.40;;
74833;SDS011;63361;52.384;20.930;2024-03-02T08:09:51;28.47;;;12.73;;
74833;SDS011;63361;52.384;20.930;2024-03-02T08:12:17;30.43;;;12.83;;
74833;SDS011;63361;52.384;20.930;2024-03-02T08:14:44;29.00;;;12.48;;
74833;SDS011;63361;52.384;20.930;2024-03-02T08:17:10;30.70;;;14.00;;
74833;SDS011;63361;52.384;20.930;2024-03-02T08:19:36;29.20;;;12.68;;
74833;SDS011;63361;52.384;20.930;2024-03-02T08:22:02;29.92;;;13.82;;
74833;SDS011;63361;52.384;20.930;2024-03-02T08:24:28;31.05;;;13.00;;
74833;SDS011;63361;52.384;20.930;2024-03-02T08:26:53;25.90;;;12.37;;
74833;SDS011;63361;52.384;20.930;2024-03-02T08:29:19;36.23;;;12.43;;
74833;SDS011;63361;52.384;20.930;2024-03-02T08:31:44;27.43;;;12.20;;
74833;SDS011;63361;52.384;20.930;2024-03-02T08:34:09;29.27;;;12.43;;
74833;SDS011;63361;52.384;20.930;2024-03-02T08:36:34;27.03;;;11.37;;
74833;SDS011;63361;52.384;20.930;2024-03-02T08:39:01;29.02;;;12.20;;
74833;SDS011;63361;52.384;20.930;2024-03-02T08:41:27;28.42;;;12.25;;
74833;SDS011;63361;52.384;20.930;2024-03-02T08:43:52;32.57;;;13.30;;
74833;SDS011;63361;52.384;20.930;2024-03-02T08:46:17;29.17;;;13.30;;
74833;SDS011;63361;52.384;20.930;2024-03-02T08:48:43;26.50;;;12.63;;
74833;SDS011;63361;52.384;20.930;2024-03-02T08:51:08;27.48;;;12.15;;
74833;SDS011;63361;52.384;20.930;2024-03-02T08:53:35;28.73;;;13.00;;
74833;SDS011;63361;52.384;20.930;2024-03-02T08:56:01;34.05;;;12.45;;
74833;SDS011;63361;52.384;20.930;2024-03-02T08:58:26;32.60;;;13.53;;
74833;SDS011;63361;52.384;20.930;2024-03-02T09:00:51;29.67;;;12.77;;
74833;SDS011;63361;52.384;20.930;2024-03-02T09:03:17;33.47;;;13.55;;
74833;SDS011;63361;52.384;20.930;2024-03-02T09:05:42;29.27;;;12.87;;
74833;SDS011;63361;52.384;20.930;2024-03-02T09:08:08;31.60;;;12.60;;
74833;SDS011;63361;52.384;20.930;2024-03-02T09:10:33;31.90;;;13.17;;
74833;SDS011;63361;52.384;20.930;2024-03-02T09:12:58;28.90;;;13.07;;
74833;SDS011;63361;52.384;20.930;2024-03-02T09:15:24;30.40;;;12.90;;
74833;SDS011;63361;52.384;20.930;2024-03-02T09:17:50;29.40;;;13.87;;
74833;SDS011;63361;52.384;20.930;2024-03-02T09:20:15;30.63;;;14.23;;
74833;SDS011;63361;52.384;20.930;2024-03-02T09:22:41;32.97;;;14.20;;
74833;SDS011;63361;52.384;20.930;2024-03-02T09:25:07;30.47;;;13.13;;
74833;SDS011;63361;52.384;20.930;2024-03-02T09:27:35;27.60;;;13.05;;
74833;SDS011;63361;52.384;20.930;2024-03-02T09:30:01;31.40;;;13.40;;
74833;SDS011;63361;52.384;20.930;2024-03-02T09:32:27;32.13;;;13.13;;
74833;SDS011;63361;52.384;20.930;2024-03-02T09:34:52;29.87;;;13.17;;
74833;SDS011;63361;52.384;20.930;2024-03-02T09:37:18;29.73;;;13.68;;
74833;SDS011;63361;52.384;20.930;2024-03-02T09:39:43;28.40;;;13.20;;
74833;SDS011;63361;52.384;20.930;2024-03-02T09:42:10;28.23;;;12.68;;
74833;SDS011;63361;52.384;20.930;2024-03-02T09:44:36;33.22;;;13.10;;
74833;SDS011;63361;52.384;20.930;2024-03-02T09:47:02;31.40;;;13.57;;
74833;SDS011;63361;52.384;20.930;2024-03-02T09:49:27;32.42;;;13.50;;
74833;SDS011;63361;52.384;20.930;2024-03-02T09:51:53;29.47;;;13.07;;
74833;SDS011;63361;52.384;20.930;2024-03-02T09:54:18;34.97;;;16.35;;
74833;SDS011;63361;52.384;20.930;2024-03-02T09:56:44;32.53;;;14.23;;
74833;SDS011;63361;52.384;20.930;2024-03-02T09:59:10;26.37;;;12.27;;
74833;SDS011;63361;52.384;20.930;2024-03-02T10:01:35;33.85;;;14.23;;
74833;SDS011;63361;52.384;20.930;2024-03-02T10:04:01;30.47;;;13.90;;
74833;SDS011;63361;52.384;20.930;2024-03-02T10:06:27;29.08;;;13.38;;
74833;SDS011;63361;52.384;20.930;2024-03-02T10:08:54;34.20;;;13.17;;
74833;SDS011;63361;52.384;20.930;2024-03-02T10:11:30;30.95;;;12.80;;
74833;SDS011;63361;52.384;20.930;2024-03-02T10:14:08;28.60;;;12.82;;
74833;SDS011;63361;52.384;20.930;2024-03-02T10:16:38;27.13;;;12.05;;
74833;SDS011;63361;52.384;20.930;2024-03-02T10:19:26;30.40;;;13.10;;
74833;SDS011;63361;52.384;20.930;2024-03-02T10:21:52;29.90;;;13.43;;
74833;SDS011;63361;52.384;20.930;2024-03-02T10:24:19;30.23;;;14.15;;
74833;SDS011;63361;52.384;20.930;2024-03-02T10:26:45;25.23;;;12.10;;
74833;SDS011;63361;52.384;20.930;2024-03-02T10:29:11;26.97;;;12.60;;
74833;SDS011;63361;52.384;20.930;2024-03-02T10:31:40;28.42;;;13.18;;
74833;SDS011;63361;52.384;20.930;2024-03-02T10:34:07;28.48;;;12.48;;
74833;SDS011;63361;52.384;20.930;2024-03-02T10:36:33;30.17;;;12.38;;
74833;SDS011;63361;52.384;20.930;2024-03-02T10:39:05;24.03;;;11.53;;
74833;SDS011;63361;52.384;20.930;2024-03-02T10:41:32;27.05;;;12.65;;
74833;SDS011;63361;52.384;20.930;2024-03-02T10:44:02;25.60;;;12.05;;
74833;SDS011;63361;52.384;20.930;2024-03-02T10:46:29;25.17;;;11.93;;
74833;SDS011;63361;52.384;20.930;2024-03-02T10:48:59;30.27;;;11.93;;
74833;SDS011;63361;52.384;20.930;2024-03-02T10:51:26;23.77;;;10.83;;
74833;SDS011;63361;52.384;20.930;2024-03-02T10:53:54;25.85;;;12.20;;
74833;SDS011;63361;52.384;20.930;2024-03-02T10:56:27;29.25;;;11.80;;
74833;SDS011;63361;52.384;20.930;2024-03-02T10:59:04;26.35;;;12.75;;
74833;SDS011;63361;52.384;20.930;2024-03-02T11:01:39;26.67;;;12.75;;
74833;SDS011;63361;52.384;20.930;2024-03-02T11:04:08;25.57;;;11.77;;
74833;SDS011;63361;52.384;20.930;2024-03-02T11:06:34;27.15;;;11.63;;
74833;SDS011;63361;52.384;20.930;2024-03-02T11:09:05;26.42;;;12.07;;
74833;SDS011;63361;52.384;20.930;2024-03-02T11:11:35;24.98;;;11.70;;
74833;SDS011;63361;52.384;20.930;2024-03-02T11:14:02;27.45;;;11.70;;
74833;SDS011;63361;52.384;20.930;2024-03-02T11:16:37;25.17;;;12.43;;
74833;SDS011;63361;52.384;20.930;2024-03-02T11:19:04;28.40;;;11.15;;
74833;SDS011;63361;52.384;20.930;2024-03-02T11:21:32;23.92;;;12.00;;
74833;SDS011;63361;52.384;20.930;2024-03-02T11:24:27;25.55;;;12.07;;
74833;SDS011;63361;52.384;20.930;2024-03-02T11:26:46;23.88;;;11.75;;
74833;SDS011;63361;52.384;20.930;2024-03-02T11:32:05;26.15;;;12.05;;
74833;SDS011;63361;52.384;20.930;2024-03-02T11:34:41;30.75;;;12.23;;
74833;SDS011;63361;52.384;20.930;2024-03-02T11:37:12;29.33;;;12.90;;
74833;SDS011;63361;52.384;20.930;2024-03-02T11:39:42;22.90;;;11.63;;
74833;SDS011;63361;52.384;20.930;2024-03-02T11:42:09;29.23;;;13.75;;
74833;SDS011;63361;52.384;20.930;2024-03-02T11:44:36;26.45;;;12.20;;
74833;SDS011;63361;52.384;20.930;2024-03-02T11:47:05;27.33;;;12.00;;
74833;SDS011;63361;52.384;20.930;2024-03-02T11:52:04;25.42;;;11.88;;
74833;SDS011;63361;52.384;20.930;2024-03-02T11:54:31;24.95;;;12.13;;
74833;SDS011;63361;52.384;20.930;2024-03-02T11:56:59;27.58;;;12.73;;
74833;SDS011;63361;52.384;20.930;2024-03-02T11:59:27;28.45;;;13.73;;
74833;SDS011;63361;52.384;20.930;2024-03-02T12:01:54;25.43;;;12.87;;
74833;SDS011;63361;52.384;20.930;2024-03-02T12:04:19;27.95;;;13.65;;
74833;SDS011;63361;52.384;20.930;2024-03-02T12:06:46;24.45;;;12.40;;
74833;SDS011;63361;52.384;20.930;2024-03-02T12:09:13;31.95;;;14.20;;
74833;SDS011;63361;52.384;20.930;2024-03-02T12:11:39;33.43;;;15.27;;
74833;SDS011;63361;52.384;20.930;2024-03-02T12:14:10;31.85;;;14.68;;
74833;SDS011;63361;52.384;20.930;2024-03-02T12:16:37;30.63;;;14.87;;
74833;SDS011;63361;52.384;20.930;2024-03-02T12:19:04;28.73;;;15.00;;
74833;SDS011;63361;52.384;20.930;2024-03-02T12:21:30;33.78;;;14.55;;
74833;SDS011;63361;52.384;20.930;2024-03-02T12:23:56;32.23;;;13.97;;
74833;SDS011;63361;52.384;20.930;2024-03-02T12:26:21;28.55;;;14.18;;
74833;SDS011;63361;52.384;20.930;2024-03-02T12:28:47;32.87;;;15.67;;
74833;SDS011;63361;52.384;20.930;2024-03-02T12:31:13;31.30;;;15.70;;
74833;SDS011;63361;52.384;20.930;2024-03-02T12:33:39;29.23;;;14.07;;
74833;SDS011;63361;52.384;20.930;2024-03-02T12:36:09;34.22;;;17.25;;
74833;SDS011;63361;52.384;20.930;2024-03-02T12:38:34;34.85;;;17.13;;
74833;SDS011;63361;52.384;20.930;2024-03-02T12:41:00;30.23;;;15.33;;
74833;SDS011;63361;52.384;20.930;2024-03-02T12:43:29;34.07;;;16.53;;
74833;SDS011;63361;52.384;20.930;2024-03-02T12:45:55;35.03;;;16.58;;
74833;SDS011;63361;52.384;20.930;2024-03-02T12:48:21;34.57;;;16.30;;
74833;SDS011;63361;52.384;20.930;2024-03-02T12:50:46;32.90;;;15.77;;
74833;SDS011;63361;52.384;20.930;2024-03-02T12:53:15;33.97;;;18.23;;
74833;SDS011;63361;52.384;20.930;2024-03-02T12:55:41;37.22;;;17.42;;
74833;SDS011;63361;52.384;20.930;2024-03-02T12:58:08;36.83;;;18.83;;
74833;SDS011;63361;52.384;20.930;2024-03-02T13:00:34;36.93;;;18.53;;
74833;SDS011;63361;52.384;20.930;2024-03-02T13:03:00;35.20;;;18.27;;
74833;SDS011;63361;52.384;20.930;2024-03-02T13:05:31;33.88;;;17.45;;
74833;SDS011;63361;52.384;20.930;2024-03-02T13:07:57;38.67;;;17.65;;
74833;SDS011;63361;52.384;20.930;2024-03-02T13:10:24;34.30;;;17.17;;
74833;SDS011;63361;52.384;20.930;2024-03-02T13:12:50;34.33;;;17.75;;
74833;SDS011;63361;52.384;20.930;2024-03-02T13:15:15;35.17;;;18.70;;
74833;SDS011;63361;52.384;20.930;2024-03-02T13:17:40;33.20;;;17.20;;
74833;SDS011;63361;52.384;20.930;2024-03-02T13:20:06;42.20;;;19.10;;
74833;SDS011;63361;52.384;20.930;2024-03-02T13:22:35;31.92;;;17.45;;
74833;SDS011;63361;52.384;20.930;2024-03-02T13:25:01;35.92;;;18.35;;
74833;SDS011;63361;52.384;20.930;2024-03-02T13:27:29;31.95;;;17.77;;
74833;SDS011;63361;52.384;20.930;2024-03-02T13:29:56;32.30;;;17.25;;
74833;SDS011;63361;52.384;20.930;2024-03-02T13:32:21;34.47;;;16.80;;
74833;SDS011;63361;52.384;20.930;2024-03-02T13:34:49;30.73;;;16.57;;
74833;SDS011;63361;52.384;20.930;2024-03-02T13:37:14;31.50;;;15.90;;
74833;SDS011;63361;52.384;20.930;2024-03-02T13:39:40;34.97;;;16.97;;
74833;SDS011;63361;52.384;20.930;2024-03-02T13:42:10;32.70;;;15.60;;
74833;SDS011;63361;52.384;20.930;2024-03-02T13:44:37;34.17;;;17.80;;
74833;SDS011;63361;52.384;20.930;2024-03-02T13:47:03;29.07;;;14.97;;
74833;SDS011;63361;52.384;20.930;2024-03-02T13:49:29;29.38;;;15.18;;
74833;SDS011;63361;52.384;20.930;2024-03-02T13:52:02;29.70;;;15.60;;
74833;SDS011;63361;52.384;20.930;2024-03-02T13:54:36;30.77;;;15.20;;
74833;SDS011;63361;52.384;20.930;2024-03-02T13:57:02;31.27;;;15.88;;
74833;SDS011;63361;52.384;20.930;2024-03-02T13:59:27;26.87;;;14.43;;
74833;SDS011;63361;52.384;20.930;2024-03-02T14:01:53;27.03;;;13.27;;
74833;SDS011;63361;52.384;20.930;2024-03-02T14:04:18;32.47;;;16.90;;
74833;SDS011;63361;52.384;20.930;2024-03-02T14:06:44;35.13;;;16.88;;
74833;SDS011;63361;52.384;20.930;2024-03-02T14:09:09;32.57;;;15.17;;
74833;SDS011;63361;52.384;20.930;2024-03-02T14:11:34;34.23;;;16.57;;
74833;SDS011;63361;52.384;20.930;2024-03-02T14:14:00;37.10;;;17.42;;